Time;durP1;ratioP1;P1;durP2;ratioP2;P2;SDS_P1;SDS_P2;PMS_P1;PMS_P2;Temp;Humidity;BMP_temperature;BMP_pressure;BME280_temperature;BME280_humidity;BME280_pressure;Samples;Min_cycle;Max_cycle;Signal;HPM_P1;HPM_P2
2023/06/14 00:03:49;;;;;;;11.23;4.30;;;17.00;99.90;;;;;;7345333;32;20091;-56
2023/06/14 00:07:53;;;;;;;6.35;4.28;;;17.00;99.90;;;;;;7341207;32;20292;-56
2023/06/14 00:11:55;;;;;;;6.40;5.15;;;16.90;99.90;;;;;;7352586;32;20182;-54
2023/06/14 00:15:56;;;;;;;6.97;4.75;;;16.80;99.90;;;;;;7338980;32;20549;-56
2023/06/14 00:19:59;;;;;;;9.48;5.28;;;16.70;99.90;;;;;;7340678;32;20269;-56
2023/06/14 00:24:01;;;;;;;6.40;4.75;;;16.50;99.90;;;;;;7341767;32;20491;-57
2023/06/14 00:28:03;;;;;;;9.27;5.35;;;16.20;99.90;;;;;;7338505;32;20384;-57
2023/06/14 00:32:05;;;;;;;4.72;4.15;;;15.90;99.90;;;;;;7344591;32;20191;-57
2023/06/14 00:36:07;;;;;;;7.10;4.85;;;15.80;99.90;;;;;;7349243;32;20556;-57
2023/06/14 00:40:08;;;;;;;8.93;5.47;;;15.60;99.90;;;;;;7351975;32;20107;-58
2023/06/14 00:44:11;;;;;;;6.55;4.87;;;15.40;99.90;;;;;;7344747;32;20099;-56
2023/06/14 00:48:14;;;;;;;10.18;5.35;;;15.10;99.90;;;;;;7347101;32;20103;-55
2023/06/14 00:52:16;;;;;;;9.38;5.03;;;15.00;99.90;;;;;;7343906;32;20169;-55
2023/06/14 00:56:20;;;;;;;8.95;5.65;;;14.80;99.90;;;;;;7341891;32;20135;-55
2023/06/14 01:00:22;;;;;;;8.20;5.50;;;14.70;99.90;;;;;;7343976;32;20228;-55
2023/06/14 01:04:24;;;;;;;6.18;4.97;;;14.60;99.90;;;;;;7335008;32;20107;-55
2023/06/14 01:08:51;;;;;;;6.90;5.10;;;14.30;99.90;;;;;;7346744;32;20111;-58
2023/06/14 01:13:05;;;;;;;9.02;5.80;;;14.30;99.90;;;;;;7349509;32;20126;-57
2023/06/14 01:17:16;;;;;;;9.10;6.35;;;14.00;99.90;;;;;;7341696;32;20221;-57
2023/06/14 01:21:25;;;;;;;6.55;5.22;;;13.90;99.90;;;;;;7340589;32;20138;-57
2023/06/14 01:25:28;;;;;;;6.68;4.90;;;13.70;99.90;;;;;;7343486;32;20219;-57
2023/06/14 01:29:32;;;;;;;9.80;5.87;;;13.70;99.90;;;;;;7343233;32;20477;-58
2023/06/14 01:33:35;;;;;;;8.77;5.72;;;13.60;99.90;;;;;;7333008;32;20107;-57
2023/06/14 01:37:38;;;;;;;11.52;6.20;;;13.50;99.90;;;;;;7343735;32;20600;-57
2023/06/14 01:41:41;;;;;;;10.20;6.18;;;13.50;99.90;;;;;;7360591;32;20551;-58
2023/06/14 01:45:44;;;;;;;8.73;6.37;;;13.40;99.90;;;;;;7344264;32;20210;-57
2023/06/14 01:49:47;;;;;;;7.15;5.15;;;13.40;99.90;;;;;;7346860;32;20719;-57
2023/06/14 01:53:48;;;;;;;7.65;6.10;;;13.40;99.90;;;;;;7347589;32;20129;-57
2023/06/14 01:57:54;;;;;;;8.52;5.65;;;13.40;99.90;;;;;;7350844;32;20141;-57
2023/06/14 02:01:55;;;;;;;10.80;6.22;;;13.50;99.90;;;;;;7343810;32;20103;-57
2023/06/14 02:05:57;;;;;;;11.32;5.87;;;13.40;99.90;;;;;;7341704;32;20138;-57
2023/06/14 02:09:59;;;;;;;8.98;5.93;;;13.50;99.90;;;;;;7343077;32;20115;-57
2023/06/14 02:14:01;;;;;;;8.43;5.65;;;13.40;99.90;;;;;;7351752;32;20543;-57
2023/06/14 02:18:04;;;;;;;5.93;5.32;;;13.30;99.90;;;;;;7342725;32;20135;-57
2023/06/14 02:22:06;;;;;;;7.65;5.82;;;13.20;99.90;;;;;;7344162;32;20106;-57
2023/06/14 02:26:08;;;;;;;8.48;5.60;;;13.10;99.90;;;;;;7343053;32;20111;-57
2023/06/14 02:30:11;;;;;;;7.57;5.87;;;13.10;99.90;;;;;;7345153;32;20099;-57
2023/06/14 02:34:12;;;;;;;10.88;5.82;;;12.90;99.90;;;;;;7348984;32;20265;-57
2023/06/14 02:38:14;;;;;;;9.77;6.15;;;12.90;99.90;;;;;;7337155;32;20152;-56
2023/06/14 02:42:16;;;;;;;6.62;5.78;;;12.90;99.90;;;;;;7334600;32;20122;-57
2023/06/14 02:46:18;;;;;;;9.05;5.68;;;12.70;99.90;;;;;;7343835;32;20111;-57
2023/06/14 02:50:21;;;;;;;7.22;5.70;;;12.70;99.90;;;;;;7338922;32;20123;-56
2023/06/14 02:54:23;;;;;;;7.90;5.75;;;12.60;99.90;;;;;;7339207;32;20214;-56
2023/06/14 02:58:24;;;;;;;8.55;6.07;;;12.50;99.90;;;;;;7346050;32;20563;-57
2023/06/14 03:02:26;;;;;;;10.40;5.85;;;12.50;99.90;;;;;;7347151;32;20126;-57
2023/06/14 03:06:30;;;;;;;9.80;6.37;;;12.50;99.90;;;;;;7346624;32;20142;-56
2023/06/14 03:10:32;;;;;;;8.65;6.18;;;12.50;99.90;;;;;;7351494;32;20106;-56
2023/06/14 03:14:34;;;;;;;7.65;5.97;;;12.40;99.90;;;;;;7343963;32;20195;-57
2023/06/14 03:18:37;;;;;;;9.00;6.47;;;12.40;99.90;;;;;;7343204;32;20198;-57
2023/06/14 03:22:39;;;;;;;9.48;6.03;;;12.30;99.90;;;;;;7341541;32;20130;-57
2023/06/14 03:26:41;;;;;;;6.93;5.72;;;12.30;99.90;;;;;;7345785;32;20107;-57
2023/06/14 03:30:42;;;;;;;8.25;6.12;;;12.30;99.90;;;;;;7337882;32;20278;-56
2023/06/14 03:34:45;;;;;;;7.47;5.70;;;12.30;99.90;;;;;;7341192;32;20111;-57
2023/06/14 03:38:46;;;;;;;6.95;6.20;;;12.20;99.90;;;;;;7342711;32;20132;-57
2023/06/14 03:42:48;;;;;;;11.80;6.40;;;12.20;99.90;;;;;;7347824;32;20098;-59
2023/06/14 03:46:50;;;;;;;9.57;5.65;;;12.10;99.90;;;;;;7339919;32;20131;-58
2023/06/14 03:50:52;;;;;;;6.57;5.65;;;12.10;99.90;;;;;;7347783;32;20478;-58
2023/06/14 03:54:54;;;;;;;7.62;5.55;;;12.10;99.90;;;;;;7351488;32;20547;-57
2023/06/14 03:58:58;;;;;;;8.93;5.68;;;12.00;99.90;;;;;;7350944;32;20100;-57
2023/06/14 04:03:00;;;;;;;13.10;5.85;;;12.10;99.90;;;;;;7344253;32;20099;-59
2023/06/14 04:07:03;;;;;;;8.63;6.00;;;12.20;99.90;;;;;;7350161;32;20269;-57
2023/06/14 04:11:05;;;;;;;12.65;6.32;;;12.30;99.90;;;;;;7353310;32;20115;-57
2023/06/14 04:15:08;;;;;;;9.75;5.87;;;12.40;99.90;;;;;;7350858;32;20244;-56
2023/06/14 04:19:22;;;;;;;9.45;5.35;;;12.70;99.90;;;;;;7351684;32;20129;-58
2023/06/14 04:23:24;;;;;;;9.23;4.93;;;13.10;99.90;;;;;;7352235;32;20575;-57
2023/06/14 04:27:30;;;;;;;8.70;4.80;;;13.50;99.90;;;;;;7340455;32;20172;-58
2023/06/14 04:31:37;;;;;;;7.60;4.40;;;14.00;99.90;;;;;;7343282;32;20268;-58
2023/06/14 04:35:40;;;;;;;7.40;4.50;;;14.40;99.90;;;;;;7349605;32;20823;-56
2023/06/14 04:39:42;;;;;;;11.15;4.62;;;14.90;99.90;;;;;;7352301;32;20226;-58
2023/06/14 04:43:48;;;;;;;10.48;4.57;;;15.20;99.90;;;;;;7345124;32;20127;-57
2023/06/14 04:47:51;;;;;;;8.63;4.30;;;15.50;99.90;;;;;;7341143;32;20195;-58
2023/06/14 04:51:57;;;;;;;5.95;4.32;;;15.70;99.90;;;;;;7348178;32;20217;-57
2023/06/14 04:56:00;;;;;;;7.97;5.05;;;15.90;99.90;;;;;;7343252;32;20110;-57
2023/06/14 05:00:04;;;;;;;6.90;4.53;;;16.10;99.90;;;;;;7346552;32;20823;-58
2023/06/14 05:04:06;;;;;;;6.80;4.57;;;16.30;99.90;;;;;;7352382;32;20103;-57
2023/06/14 05:08:08;;;;;;;9.00;6.57;;;16.60;99.90;;;;;;7355740;32;20111;-57
2023/06/14 05:12:10;;;;;;;6.72;4.20;;;16.80;99.90;;;;;;7347065;32;20206;-58
2023/06/14 05:16:13;;;;;;;6.80;4.15;;;17.00;99.90;;;;;;7350832;32;20151;-56
2023/06/14 05:20:15;;;;;;;5.18;3.87;;;17.20;99.90;;;;;;7352066;32;20134;-56
2023/06/14 05:24:19;;;;;;;5.85;4.40;;;17.70;99.90;;;;;;7349583;32;20122;-56
2023/06/14 05:28:22;;;;;;;7.80;4.20;;;17.90;99.90;;;;;;7341255;32;20246;-57
2023/06/14 05:32:24;;;;;;;8.93;4.40;;;18.10;99.90;;;;;;7348292;32;20152;-56
2023/06/14 05:36:27;;;;;;;5.65;3.58;;;18.60;99.90;;;;;;7350682;32;20103;-60
2023/06/14 05:40:29;;;;;;;11.02;7.37;;;18.60;99.90;;;;;;7340401;32;20159;-58
2023/06/14 05:44:31;;;;;;;11.02;3.95;;;18.60;99.90;;;;;;7342925;32;20108;-58
2023/06/14 05:48:33;;;;;;;6.05;3.58;;;18.50;99.90;;;;;;7335342;32;20213;-57
2023/06/14 05:52:36;;;;;;;8.32;3.62;;;18.60;99.90;;;;;;7343910;32;20171;-57
2023/06/14 05:56:38;;;;;;;6.12;3.37;;;18.70;99.90;;;;;;7342329;32;20664;-57
2023/06/14 06:00:40;;;;;;;5.37;3.40;;;18.80;99.90;;;;;;7347596;32;20186;-57
2023/06/14 06:04:41;;;;;;;5.70;3.60;;;18.90;99.90;;;;;;7351282;32;20173;-58
2023/06/14 06:08:43;;;;;;;5.80;3.00;;;19.10;99.90;;;;;;7338163;32;20306;-57
2023/06/14 06:12:47;;;;;;;6.37;3.28;;;19.30;99.90;;;;;;7336414;32;20258;-58
2023/06/14 06:16:49;;;;;;;7.72;4.03;;;19.50;99.90;;;;;;7348939;32;20098;-57
2023/06/14 06:20:51;;;;;;;5.25;3.20;;;19.80;99.90;;;;;;7342692;32;20598;-58
2023/06/14 06:24:53;;;;;;;6.68;2.53;;;20.00;99.90;;;;;;7352726;32;20198;-57
2023/06/14 06:28:55;;;;;;;7.62;2.60;;;20.10;99.90;;;;;;7352847;32;20490;-57
2023/06/14 06:32:57;;;;;;;4.93;2.42;;;20.30;99.90;;;;;;7345660;32;20191;-58
2023/06/14 06:36:59;;;;;;;3.22;2.15;;;20.40;98.80;;;;;;7349491;32;20522;-58
2023/06/14 06:41:01;;;;;;;6.53;3.10;;;20.40;97.10;;;;;;7351225;32;20107;-58
2023/06/14 06:45:03;;;;;;;4.87;2.30;;;20.60;96.80;;;;;;7355445;32;20190;-58
2023/06/14 06:49:05;;;;;;;5.10;2.33;;;20.60;95.60;;;;;;7345477;32;20103;-57
2023/06/14 06:53:07;;;;;;;3.65;2.08;;;20.70;93.70;;;;;;7356715;32;20152;-58
2023/06/14 06:57:10;;;;;;;5.82;2.08;;;20.80;93.90;;;;;;7350285;32;20520;-57
2023/06/14 07:01:13;;;;;;;6.12;2.60;;;20.90;96.00;;;;;;7349369;32;20190;-56
2023/06/14 07:05:15;;;;;;;4.45;2.40;;;20.90;95.80;;;;;;7355879;32;20588;-58
2023/06/14 07:09:17;;;;;;;2.50;2.12;;;21.10;94.20;;;;;;7354395;32;20579;-57
2023/06/14 07:13:19;;;;;;;6.72;2.50;;;21.10;94.00;;;;;;7351162;32;20226;-57
2023/06/14 07:17:21;;;;;;;4.28;1.80;;;21.10;93.30;;;;;;7351798;32;20138;-57
2023/06/14 07:21:22;;;;;;;7.28;2.08;;;21.20;91.60;;;;;;7352668;32;20112;-58
2023/06/14 07:25:25;;;;;;;6.20;1.92;;;21.10;90.50;;;;;;7355206;32;20111;-58
2023/06/14 07:29:26;;;;;;;2.95;1.70;;;21.10;90.50;;;;;;7349291;32;20111;-57
2023/06/14 07:33:28;;;;;;;7.62;1.67;;;21.30;89.90;;;;;;7356659;32;20490;-57
2023/06/14 07:37:30;;;;;;;3.75;1.50;;;21.40;89.60;;;;;;7351690;32;20107;-58
2023/06/14 07:41:33;;;;;;;2.97;1.40;;;21.40;87.40;;;;;;7356732;32;20130;-58
2023/06/14 07:45:36;;;;;;;2.97;1.37;;;21.40;87.00;;;;;;7352195;32;20211;-58
2023/06/14 07:49:37;;;;;;;4.18;1.40;;;21.70;89.40;;;;;;7349071;32;20095;-58
2023/06/14 07:53:40;;;;;;;3.12;1.55;;;21.40;89.00;;;;;;7353671;32;20087;-58
2023/06/14 07:57:44;;;;;;;4.43;1.40;;;21.80;88.90;;;;;;7349263;32;20133;-58
2023/06/14 08:01:46;;;;;;;4.22;1.20;;;21.60;83.00;;;;;;7355430;32;20125;-58
2023/06/14 08:05:50;;;;;;;2.97;1.37;;;21.90;82.40;;;;;;7350335;32;20157;-58
2023/06/14 08:09:51;;;;;;;3.90;1.48;;;22.00;83.50;;;;;;7352813;32;20242;-59
2023/06/14 08:13:53;;;;;;;2.08;1.48;;;22.40;83.40;;;;;;7349254;32;20182;-59
2023/06/14 08:17:56;;;;;;;3.62;1.60;;;22.30;83.50;;;;;;7351248;32;20419;-59
2023/06/14 08:21:57;;;;;;;1.67;1.35;;;22.70;82.90;;;;;;7346150;32;20149;-59
2023/06/14 08:26:01;;;;;;;4.57;1.55;;;22.80;81.60;;;;;;7339088;32;20577;-57
2023/06/14 08:30:03;;;;;;;3.20;1.50;;;23.20;82.20;;;;;;7350676;32;20202;-60
2023/06/14 08:34:05;;;;;;;2.50;1.60;;;23.70;81.60;;;;;;7351187;32;20154;-59
2023/06/14 08:38:10;;;;;;;4.85;1.60;;;23.40;79.00;;;;;;7348262;32;20164;-59
2023/06/14 08:42:14;;;;;;;5.03;1.65;;;23.20;81.80;;;;;;7350488;32;20313;-59
2023/06/14 08:46:33;;;;;;;3.65;1.70;;;23.00;82.80;;;;;;7342046;32;20129;-59
2023/06/14 08:50:39;;;;;;;2.87;1.67;;;23.30;81.10;;;;;;7348303;32;20092;-59
2023/06/14 08:54:43;;;;;;;2.08;1.33;;;23.60;79.40;;;;;;7353140;32;20510;-60
2023/06/14 08:58:48;;;;;;;3.25;1.67;;;23.70;78.40;;;;;;7350331;32;20687;-57
2023/06/14 09:02:53;;;;;;;2.40;1.40;;;24.30;79.40;;;;;;7352888;32;20137;-57
2023/06/14 09:06:54;;;;;;;4.55;1.40;;;23.90;74.70;;;;;;7344714;32;20487;-58
2023/06/14 09:10:57;;;;;;;3.80;1.20;;;23.70;78.10;;;;;;7346534;32;20628;-58
2023/06/14 09:14:59;;;;;;;4.65;1.40;;;23.80;76.20;;;;;;7349884;32;20111;-58
2023/06/14 09:19:02;;;;;;;2.97;1.33;;;24.30;76.80;;;;;;7354269;32;20122;-59
2023/06/14 09:23:05;;;;;;;2.28;1.33;;;24.10;73.50;;;;;;7347635;32;20213;-58
2023/06/14 09:27:07;;;;;;;3.80;1.35;;;23.90;71.90;;;;;;7347795;32;20172;-58
2023/06/14 09:31:17;;;;;;;6.18;1.50;;;23.20;73.30;;;;;;7347115;32;20507;-58
2023/06/14 09:35:20;;;;;;;7.57;2.08;;;23.60;74.80;;;;;;7355333;32;20555;-58
2023/06/14 09:39:22;;;;;;;5.18;1.80;;;24.10;72.00;;;;;;7351802;32;20132;-59
2023/06/14 09:43:26;;;;;;;5.47;1.55;;;24.30;72.80;;;;;;7344465;32;20179;-59
2023/06/14 09:47:27;;;;;;;6.20;1.45;;;23.50;70.80;;;;;;7348395;32;20103;-58
2023/06/14 09:51:32;;;;;;;4.43;1.40;;;24.30;70.80;;;;;;7350419;32;20130;-59
2023/06/14 09:55:37;;;;;;;3.42;1.42;;;24.40;71.10;;;;;;7354299;32;20209;-59
2023/06/14 09:59:45;;;;;;;4.15;1.27;;;24.80;71.20;;;;;;7342124;32;20107;-58
2023/06/14 10:03:50;;;;;;;3.35;1.30;;;25.60;69.40;;;;;;7350566;32;20111;-60
2023/06/14 10:08:05;;;;;;;3.87;1.50;;;25.90;67.30;;;;;;7340782;32;20100;-59
2023/06/14 10:12:07;;;;;;;2.90;1.20;;;25.60;65.80;;;;;;7339764;32;20189;-58
2023/06/14 10:16:29;;;;;;;6.72;1.45;;;25.20;70.00;;;;;;7348857;32;20119;-59
2023/06/14 10:20:37;;;;;;;4.00;1.42;;;25.50;68.50;;;;;;7348908;32;20483;-59
2023/06/14 10:24:44;;;;;;;4.85;1.73;;;26.10;67.30;;;;;;7344339;32;20610;-59
2023/06/14 10:28:59;;;;;;;1.80;1.10;;;26.00;64.80;;;;;;7342131;32;20744;-59
2023/06/14 10:33:07;;;;;;;3.03;1.27;;;24.40;66.30;;;;;;7350864;32;20149;-59
2023/06/14 10:37:13;;;;;;;2.62;1.17;;;24.10;67.10;;;;;;7343230;32;20150;-59
2023/06/14 10:41:17;;;;;;;2.05;1.00;;;24.20;68.80;;;;;;7342445;32;20166;-59
2023/06/14 10:45:18;;;;;;;3.30;0.82;;;24.80;68.20;;;;;;7348025;32;20134;-60
2023/06/14 10:49:44;;;;;;;6.00;1.15;;;25.10;64.50;;;;;;7334660;32;20332;-61
2023/06/14 10:53:51;;;;;;;3.28;0.90;;;24.50;65.60;;;;;;7342496;32;20155;-56
2023/06/14 10:57:58;;;;;;;3.17;1.45;;;25.70;66.40;;;;;;7349344;32;20103;-60
2023/06/14 11:02:33;;;;;;;1.45;0.98;;;25.50;64.40;;;;;;7351539;32;20194;-59
2023/06/14 11:06:49;;;;;;;2.15;1.15;;;25.60;63.60;;;;;;7350175;32;20724;-59
2023/06/14 11:10:53;;;;;;;3.15;1.10;;;25.90;63.70;;;;;;7349373;32;20247;-59
2023/06/14 11:14:55;;;;;;;5.50;3.08;;;25.50;67.20;;;;;;7346636;32;20108;-59
2023/06/14 11:18:57;;;;;;;2.55;1.10;;;25.60;66.00;;;;;;7336504;32;20269;-59
2023/06/14 11:22:59;;;;;;;3.30;1.25;;;25.60;65.30;;;;;;7358042;32;20133;-59
2023/06/14 11:27:01;;;;;;;2.42;1.10;;;26.10;65.30;;;;;;7355947;32;20107;-59
2023/06/14 11:31:04;;;;;;;5.35;1.17;;;26.00;67.40;;;;;;7356341;32;20220;-59
2023/06/14 11:35:08;;;;;;;4.00;0.90;;;26.00;64.40;;;;;;7349400;32;20176;-59
2023/06/14 11:39:09;;;;;;;2.75;1.00;;;26.30;63.00;;;;;;7356933;32;20198;-62
2023/06/14 11:43:13;;;;;;;3.83;0.90;;;26.10;65.10;;;;;;7345766;32;20202;-62
2023/06/14 11:47:15;;;;;;;3.00;0.93;;;25.90;66.30;;;;;;7351900;32;20194;-60
2023/06/14 11:51:18;;;;;;;3.12;1.00;;;25.70;65.10;;;;;;7352815;32;20183;-60
2023/06/14 11:55:20;;;;;;;1.25;1.08;;;25.80;63.10;;;;;;7357029;32;20107;-59
2023/06/14 11:59:22;;;;;;;4.53;1.50;;;26.20;64.70;;;;;;7350693;32;20692;-58
2023/06/14 12:03:25;;;;;;;2.10;1.00;;;26.40;65.90;;;;;;7352235;32;20533;-58
2023/06/14 12:07:28;;;;;;;1.45;0.90;;;26.90;61.80;;;;;;7345316;32;20183;-57
2023/06/14 12:11:35;;;;;;;4.00;0.90;;;27.00;60.30;;;;;;7343967;32;20142;-58
2023/06/14 12:15:37;;;;;;;2.92;0.93;;;27.30;61.60;;;;;;7350797;32;20103;-56
2023/06/14 12:19:43;;;;;;;5.00;0.98;;;27.70;61.40;;;;;;7354195;32;20138;-59
2023/06/14 12:23:47;;;;;;;3.40;1.03;;;27.60;60.70;;;;;;7348192;32;20218;-58
2023/06/14 12:27:48;;;;;;;5.15;1.20;;;27.80;58.40;;;;;;7341074;32;20104;-58
2023/06/14 12:31:50;;;;;;;1.48;0.70;;;28.00;60.20;;;;;;7347438;32;20529;-59
2023/06/14 12:35:56;;;;;;;4.05;0.73;;;28.40;59.80;;;;;;7354028;32;20473;-58
2023/06/14 12:39:59;;;;;;;3.03;0.95;;;28.50;60.40;;;;;;7348726;32;20107;-58
2023/06/14 12:44:04;;;;;;;2.50;1.00;;;29.00;59.60;;;;;;7346969;32;20164;-58
2023/06/14 12:48:05;;;;;;;4.90;1.23;;;28.00;57.80;;;;;;7347750;32;20179;-58
2023/06/14 12:52:07;;;;;;;4.07;1.20;;;26.90;59.60;;;;;;7354159;32;20174;-59
2023/06/14 12:56:09;;;;;;;1.42;0.90;;;27.40;60.90;;;;;;7353086;32;20509;-58
2023/06/14 13:00:12;;;;;;;3.55;1.17;;;27.80;61.00;;;;;;7353058;32;20099;-58
2023/06/14 13:04:15;;;;;;;3.87;2.12;;;27.80;59.90;;;;;;7355533;32;20912;-59
2023/06/14 13:08:17;;;;;;;1.75;1.33;;;28.80;61.20;;;;;;7354427;32;20135;-58
2023/06/14 13:12:19;;;;;;;4.50;1.20;;;29.00;57.90;;;;;;7356702;32;20476;-59
2023/06/14 13:16:21;;;;;;;4.50;1.10;;;28.90;59.20;;;;;;7355787;32;20123;-60
2023/06/14 13:20:23;;;;;;;3.42;1.60;;;28.30;59.20;;;;;;7347463;32;20334;-59
2023/06/14 13:24:25;;;;;;;4.53;1.20;;;28.40;59.40;;;;;;7354853;32;20107;-58
2023/06/14 13:28:27;;;;;;;2.17;1.35;;;27.90;58.80;;;;;;7354726;32;20252;-58
2023/06/14 13:32:29;;;;;;;6.28;1.37;;;27.20;59.60;;;;;;7355897;32;20575;-58
2023/06/14 13:36:31;;;;;;;4.95;1.50;;;27.90;60.30;;;;;;7355182;32;20134;-58
2023/06/14 13:40:33;;;;;;;2.58;1.87;;;27.60;60.30;;;;;;7348893;32;20622;-59
2023/06/14 13:44:34;;;;;;;2.47;1.27;;;27.30;59.50;;;;;;7350948;32;20197;-58
2023/06/14 13:48:36;;;;;;;3.70;1.77;;;27.40;61.30;;;;;;7352313;32;20275;-58
2023/06/14 13:52:38;;;;;;;9.20;6.35;;;27.00;60.30;;;;;;7343662;32;20231;-59
2023/06/14 13:56:40;;;;;;;6.00;1.40;;;26.90;62.20;;;;;;7347318;32;20182;-59
2023/06/14 14:00:42;;;;;;;10.55;7.25;;;26.70;60.50;;;;;;7342829;32;20123;-58
2023/06/14 14:04:44;;;;;;;4.82;1.30;;;26.50;60.70;;;;;;7346305;32;20107;-58
2023/06/14 14:08:46;;;;;;;4.60;2.85;;;26.60;61.70;;;;;;7340554;32;20223;-57
2023/06/14 14:12:48;;;;;;;3.83;1.30;;;26.80;61.20;;;;;;7342970;32;20103;-58
2023/06/14 14:16:54;;;;;;;7.68;1.45;;;27.50;60.70;;;;;;7336883;32;20148;-59
2023/06/14 14:20:56;;;;;;;4.72;1.30;;;27.80;58.50;;;;;;7351489;32;20110;-58
2023/06/14 14:24:58;;;;;;;6.12;1.77;;;28.70;56.40;;;;;;7351618;32;20112;-57
2023/06/14 14:29:00;;;;;;;5.45;1.92;;;28.80;56.70;;;;;;7350670;32;20121;-57
2023/06/14 14:33:01;;;;;;;5.62;1.70;;;27.80;58.50;;;;;;7337866;32;20107;-55
2023/06/14 14:37:04;;;;;;;2.75;1.40;;;27.80;58.90;;;;;;7340938;32;20104;-57
2023/06/14 14:41:05;;;;;;;7.22;6.35;;;28.50;57.60;;;;;;7340054;32;20228;-58
2023/06/14 14:45:07;;;;;;;4.72;2.30;;;27.80;58.20;;;;;;7348133;32;20175;-57
2023/06/14 14:49:09;;;;;;;2.90;1.45;;;28.30;56.80;;;;;;7349983;32;20164;-58
2023/06/14 14:53:11;;;;;;;4.12;1.60;;;27.10;58.10;;;;;;7352028;32;20258;-61
2023/06/14 14:57:13;;;;;;;9.48;1.50;;;27.20;59.00;;;;;;7348258;32;20142;-58
2023/06/14 15:01:14;;;;;;;3.90;1.50;;;27.10;58.90;;;;;;7353683;32;20122;-58
2023/06/14 15:05:17;;;;;;;4.82;1.70;;;27.30;58.60;;;;;;7354578;32;20122;-58
2023/06/14 15:09:19;;;;;;;2.85;1.40;;;27.50;59.60;;;;;;7348779;32;20557;-58
2023/06/14 15:13:22;;;;;;;5.32;1.58;;;27.60;58.60;;;;;;7349346;32;20238;-59
2023/06/14 15:17:24;;;;;;;5.65;2.53;;;27.60;57.50;;;;;;7345960;32;20984;-58
2023/06/14 15:21:26;;;;;;;8.60;1.70;;;27.10;58.40;;;;;;7351175;32;20103;-58
2023/06/14 15:25:29;;;;;;;4.85;1.60;;;26.30;60.50;;;;;;7349856;32;20122;-58
2023/06/14 15:29:31;;;;;;;3.33;1.83;;;26.10;60.40;;;;;;7345276;32;20843;-58
2023/06/14 15:33:33;;;;;;;6.40;1.73;;;25.40;63.00;;;;;;7343157;32;20178;-58
2023/06/14 15:37:35;;;;;;;4.40;1.65;;;25.10;62.30;;;;;;7346856;32;20210;-58
2023/06/14 15:41:36;;;;;;;9.88;3.33;;;25.00;64.00;;;;;;7351136;32;20133;-58
2023/06/14 15:45:39;;;;;;;7.15;2.00;;;24.30;64.50;;;;;;7339675;32;20131;-58
2023/06/14 15:49:40;;;;;;;4.80;1.70;;;24.30;66.00;;;;;;7337134;32;20135;-58
2023/06/14 15:53:42;;;;;;;4.68;1.80;;;24.50;65.20;;;;;;7351335;32;20223;-58
2023/06/14 15:57:44;;;;;;;4.00;1.90;;;23.90;64.60;;;;;;7353719;32;20169;-58
2023/06/14 16:01:46;;;;;;;9.57;4.18;;;23.80;64.50;;;;;;7354162;32;20176;-58
2023/06/14 16:05:50;;;;;;;3.97;2.30;;;23.60;66.50;;;;;;7354977;32;20111;-58
2023/06/14 16:09:52;;;;;;;4.40;2.03;;;23.60;67.00;;;;;;7355066;32;20111;-58
2023/06/14 16:13:55;;;;;;;6.12;2.95;;;23.70;67.70;;;;;;7351883;32;20235;-58
2023/06/14 16:17:57;;;;;;;2.42;1.85;;;23.60;66.20;;;;;;7344866;32;20123;-57
2023/06/14 16:21:59;;;;;;;15.02;6.15;;;23.50;66.00;;;;;;7351539;32;20149;-57
2023/06/14 16:26:01;;;;;;;2.80;1.90;;;23.60;67.90;;;;;;7349161;32;20163;-57
2023/06/14 16:30:04;;;;;;;8.00;2.30;;;23.50;66.70;;;;;;7350292;32;20153;-58
2023/06/14 16:34:10;;;;;;;10.60;6.85;;;23.50;67.40;;;;;;7347013;32;20265;-57
2023/06/14 16:38:13;;;;;;;22.55;16.02;;;23.50;67.70;;;;;;7336634;32;20139;-58
2023/06/14 16:42:15;;;;;;;5.65;2.55;;;23.60;67.70;;;;;;7348446;32;20162;-58
2023/06/14 16:46:29;;;;;;;4.37;3.87;;;23.50;68.20;;;;;;7349821;32;20579;-58
2023/06/14 16:50:32;;;;;;;6.82;4.28;;;23.50;67.60;;;;;;7344361;32;20472;-58
2023/06/14 16:54:37;;;;;;;5.82;2.10;;;23.40;67.60;;;;;;7338005;32;20100;-58
2023/06/14 16:58:39;;;;;;;4.72;1.95;;;23.30;66.00;;;;;;7351573;32;20110;-58
2023/06/14 17:02:42;;;;;;;8.38;4.90;;;23.30;66.10;;;;;;7350014;32;20152;-58
2023/06/14 17:06:44;;;;;;;4.87;2.80;;;23.30;66.30;;;;;;7345133;32;20134;-57
2023/06/14 17:10:46;;;;;;;5.65;2.12;;;23.20;65.80;;;;;;7344677;32;20142;-57
2023/06/14 17:14:48;;;;;;;7.28;1.75;;;23.30;65.80;;;;;;7346323;32;20115;-57
2023/06/14 17:18:53;;;;;;;4.62;2.30;;;23.00;65.50;;;;;;7349382;32;20106;-57
2023/06/14 17:22:56;;;;;;;3.15;1.83;;;23.10;67.00;;;;;;7353777;32;20274;-58
2023/06/14 17:26:58;;;;;;;4.40;2.00;;;23.10;65.90;;;;;;7352573;32;20549;-57
2023/06/14 17:31:00;;;;;;;6.78;5.25;;;23.00;66.70;;;;;;7352090;32;20182;-58
2023/06/14 17:35:03;;;;;;;2.70;2.12;;;23.00;67.10;;;;;;7347327;32;20232;-57
2023/06/14 17:39:05;;;;;;;6.43;5.78;;;23.00;66.80;;;;;;7351324;32;20898;-58
2023/06/14 17:43:07;;;;;;;5.82;2.20;;;23.00;65.80;;;;;;7353341;32;20122;-58
2023/06/14 17:47:09;;;;;;;5.82;2.08;;;23.00;66.50;;;;;;7352091;32;20461;-58
2023/06/14 17:51:20;;;;;;;7.28;2.08;;;22.90;66.30;;;;;;7347236;32;20125;-58
2023/06/14 17:55:22;;;;;;;6.97;3.58;;;22.90;66.90;;;;;;7354589;32;20157;-58
2023/06/14 17:59:24;;;;;;;1.83;1.62;;;22.80;67.30;;;;;;7350133;32;20139;-58
2023/06/14 18:03:26;;;;;;;2.65;1.90;;;22.80;67.60;;;;;;7349221;32;20201;-58
2023/06/14 18:07:28;;;;;;;4.80;1.90;;;22.70;67.20;;;;;;7349431;32;20537;-58
2023/06/14 18:11:32;;;;;;;5.07;2.25;;;22.60;67.50;;;;;;7345199;32;20466;-59
2023/06/14 18:15:34;;;;;;;3.30;1.90;;;22.50;68.30;;;;;;7349478;32;20204;-58
2023/06/14 18:19:37;;;;;;;5.35;4.10;;;22.50;69.30;;;;;;7339741;32;20122;-58
2023/06/14 18:23:39;;;;;;;5.78;2.00;;;22.50;68.50;;;;;;7351932;32;20387;-58
2023/06/14 18:27:41;;;;;;;6.22;1.80;;;22.30;69.60;;;;;;7348389;32;20521;-57
2023/06/14 18:31:43;;;;;;;8.05;1.90;;;22.30;69.90;;;;;;7343795;32;20133;-58
2023/06/14 18:35:45;;;;;;;3.55;1.55;;;22.20;71.20;;;;;;7347469;32;20153;-58
2023/06/14 18:39:47;;;;;;;5.45;1.70;;;22.20;71.70;;;;;;7342859;32;20240;-58
2023/06/14 18:43:49;;;;;;;3.47;1.55;;;22.00;72.00;;;;;;7340687;32;20186;-55
2023/06/14 18:47:51;;;;;;;3.47;1.52;;;21.90;74.20;;;;;;7343525;32;21158;-57
2023/06/14 18:51:53;;;;;;;3.37;2.42;;;21.90;72.70;;;;;;7346639;32;20201;-56
2023/06/14 18:56:01;;;;;;;2.17;1.30;;;21.80;73.00;;;;;;7345551;32;20639;-58
2023/06/14 19:00:05;;;;;;;10.23;1.70;;;21.70;73.40;;;;;;7344874;32;20577;-58
2023/06/14 19:04:07;;;;;;;6.10;1.90;;;21.60;74.40;;;;;;7347997;32;20213;-58
2023/06/14 19:08:09;;;;;;;4.72;2.33;;;21.50;74.90;;;;;;7346730;32;20121;-58
2023/06/14 19:12:11;;;;;;;5.18;1.90;;;21.30;75.60;;;;;;7353854;32;20179;-59
2023/06/14 19:16:13;;;;;;;17.42;2.30;;;21.20;76.60;;;;;;7347594;32;20111;-59
2023/06/14 19:20:15;;;;;;;7.72;1.75;;;21.20;77.00;;;;;;7353384;32;20238;-59
2023/06/14 19:24:18;;;;;;;2.80;1.80;;;21.10;78.10;;;;;;7350396;32;20196;-57
2023/06/14 19:28:22;;;;;;;2.60;1.42;;;20.90;79.00;;;;;;7346415;32;20230;-58
2023/06/14 19:32:27;;;;;;;2.90;1.80;;;20.90;79.60;;;;;;7349206;32;20144;-59
2023/06/14 19:36:29;;;;;;;5.57;1.70;;;20.70;80.60;;;;;;7343958;32;20265;-59
2023/06/14 19:40:31;;;;;;;3.15;1.62;;;20.70;80.30;;;;;;7338165;32;20469;-59
2023/06/14 19:44:33;;;;;;;3.08;1.83;;;20.50;81.20;;;;;;7345467;32;20593;-58
2023/06/14 19:48:35;;;;;;;2.12;1.65;;;20.50;82.00;;;;;;7338443;32;20657;-58
2023/06/14 19:52:38;;;;;;;3.10;1.48;;;20.40;82.40;;;;;;7347029;32;20225;-58
2023/06/14 19:56:40;;;;;;;3.00;1.55;;;20.20;83.90;;;;;;7356822;32;20103;-58
2023/06/14 20:00:42;;;;;;;3.20;1.50;;;20.10;86.00;;;;;;7352915;32;20121;-58
2023/06/14 20:04:44;;;;;;;4.07;1.55;;;20.00;86.60;;;;;;7349619;32;20110;-57
2023/06/14 20:08:47;;;;;;;3.53;1.62;;;19.80;87.90;;;;;;7348300;32;20194;-56
2023/06/14 20:12:49;;;;;;;4.10;1.30;;;19.80;88.10;;;;;;7357230;32;20149;-57
2023/06/14 20:16:51;;;;;;;3.12;1.40;;;19.60;90.30;;;;;;7352044;32;20123;-58
2023/06/14 20:20:54;;;;;;;3.28;1.67;;;19.60;90.50;;;;;;7357429;32;20154;-58
2023/06/14 20:24:56;;;;;;;2.95;1.90;;;19.50;92.50;;;;;;7348198;32;20194;-56
2023/06/14 20:28:58;;;;;;;2.03;1.70;;;19.40;93.70;;;;;;7352919;32;21121;-56
2023/06/14 20:33:00;;;;;;;4.30;1.50;;;19.20;95.00;;;;;;7348492;32;20120;-57
2023/06/14 20:37:02;;;;;;;2.83;1.50;;;19.00;95.90;;;;;;7343151;32;20542;-57
2023/06/14 20:41:05;;;;;;;3.60;1.80;;;18.80;96.50;;;;;;7343648;32;20120;-57
2023/06/14 20:45:07;;;;;;;2.50;1.40;;;18.70;98.60;;;;;;7341279;32;20528;-57
2023/06/14 20:49:10;;;;;;;2.40;1.50;;;18.50;99.80;;;;;;7342168;32;20255;-57
2023/06/14 20:53:12;;;;;;;3.40;1.42;;;18.40;99.90;;;;;;7346047;32;20217;-57
2023/06/14 20:57:17;;;;;;;2.60;1.60;;;18.20;99.90;;;;;;7355533;32;20175;-58
2023/06/14 21:01:32;;;;;;;1.90;1.70;;;18.20;99.90;;;;;;7345630;32;20149;-57
2023/06/14 21:05:34;;;;;;;4.78;1.77;;;18.00;99.90;;;;;;7351698;32;20091;-57